Time;durP1;ratioP1;P1;durP2;ratioP2;P2;SDS_P1;SDS_P2;PMS_P1;PMS_P2;Temp;Humidity;BMP_temperature;BMP_pressure;BME280_temperature;BME280_humidity;BME280_pressure;Samples;Min_cycle;Max_cycle;Signal;HPM_P1;HPM_P2
2023/03/23 00:01:19;;;;;;;;;;;8.80;73.30;;;;;;5004691;28;94231;-39
2023/03/23 00:03:45;;;;;;;;;;;8.80;73.30;;;;;;5012453;28;93803;-38
2023/03/23 00:06:10;;;;;;;;;;;8.70;73.40;;;;;;5002194;28;93304;-38
2023/03/23 00:08:44;;;;;;;;;;;8.80;73.30;;;;;;5008967;28;92235;-39
2023/03/23 00:11:14;;;;;;;;;;;8.70;73.30;;;;;;5002402;28;94145;-38
2023/03/23 00:13:40;;;;;;;;;;;8.70;73.30;;;;;;5001640;28;94910;-38
2023/03/23 00:16:12;;;;;;;;;;;8.70;73.20;;;;;;5002984;28;91458;-39
2023/03/23 00:18:38;;;;;;;;;;;8.70;73.30;;;;;;5002430;28;92920;-39
2023/03/23 00:21:03;;;;;;;;;;;8.70;73.30;;;;;;5001745;28;93034;-39
2023/03/23 00:23:29;;;;;;;;;;;8.70;73.30;;;;;;5015374;28;93220;-38
2023/03/23 00:25:58;;;;;;;;;;;8.60;73.30;;;;;;5014953;28;94648;-38
2023/03/23 00:28:24;;;;;;;;;;;8.60;73.30;;;;;;5001304;28;92263;-39
2023/03/23 00:30:56;;;;;;;;;;;8.60;73.30;;;;;;5015401;28;93806;-39
2023/03/23 00:33:23;;;;;;;;;;;8.60;73.20;;;;;;5013937;28;94546;-38
2023/03/23 00:35:52;;;;;;;;;;;8.60;73.10;;;;;;5002195;28;92897;-38
2023/03/23 00:38:19;;;;;;;;;;;8.60;73.20;;;;;;5011792;28;93837;-38
2023/03/23 00:40:46;;;;;;;;;;;8.60;73.10;;;;;;5016652;28;93729;-39
2023/03/23 00:43:13;;;;;;;;;;;8.60;73.30;;;;;;5019687;28;92236;-39
2023/03/23 00:45:39;;;;;;;;;;;8.60;73.30;;;;;;5001192;28;94818;-39
2023/03/23 00:48:05;;;;;;;;;;;8.50;73.20;;;;;;5001261;28;93074;-38
2023/03/23 00:50:31;;;;;;;;;;;8.50;73.20;;;;;;5001259;28;93340;-38
2023/03/23 00:52:56;;;;;;;;;;;8.50;73.10;;;;;;5016079;28;94603;-39
2023/03/23 00:55:22;;;;;;;;;;;8.50;73.20;;;;;;5001925;28;92311;-39
2023/03/23 00:57:50;;;;;;;;;;;8.50;73.10;;;;;;5013853;28;93710;-38
2023/03/23 01:00:16;;;;;;;;;;;8.50;73.80;;;;;;5006664;28;94425;-40
2023/03/23 01:02:44;;;;;;;;;;;8.50;73.10;;;;;;5001341;28;92272;-38
2023/03/23 01:05:10;;;;;;;;;;;8.50;73.10;;;;;;5004793;28;92686;-39
2023/03/23 01:07:36;;;;;;;;;;;8.50;73.10;;;;;;5001533;28;92307;-38
2023/03/23 01:10:02;;;;;;;;;;;8.50;73.20;;;;;;5013051;28;94070;-38
2023/03/23 01:12:28;;;;;;;;;;;8.50;73.20;;;;;;4999888;28;95746;-38
2023/03/23 01:14:53;;;;;;;;;;;8.40;73.10;;;;;;5001420;28;92159;-39
2023/03/23 01:17:20;;;;;;;;;;;8.40;73.20;;;;;;5015671;28;93583;-38
2023/03/23 01:19:46;;;;;;;;;;;8.50;73.10;;;;;;5017332;28;93200;-38
2023/03/23 01:22:12;;;;;;;;;;;8.40;73.10;;;;;;5017136;28;92106;-39
2023/03/23 01:24:37;;;;;;;;;;;8.40;73.10;;;;;;5002782;28;93271;-39
2023/03/23 01:27:06;;;;;;;;;;;8.40;73.10;;;;;;5003279;28;93177;-39
2023/03/23 01:29:34;;;;;;;;;;;8.40;73.10;;;;;;5001572;28;92690;-38
2023/03/23 01:32:00;;;;;;;;;;;8.30;73.20;;;;;;5000488;28;94534;-38
2023/03/23 01:34:25;;;;;;;;;;;8.40;73.10;;;;;;5000907;28;92154;-38
2023/03/23 01:36:51;;;;;;;;;;;8.30;73.20;;;;;;5000406;28;94041;-39
2023/03/23 01:39:16;;;;;;;;;;;8.30;73.00;;;;;;5000546;28;95241;-38
2023/03/23 01:41:42;;;;;;;;;;;8.30;73.10;;;;;;5000672;28;92150;-39
2023/03/23 01:44:28;;;;;;;;;;;8.40;73.10;;;;;;5000925;28;94006;-39
2023/03/23 01:46:54;;;;;;;;;;;8.30;72.90;;;;;;4991936;28;94751;-39
2023/03/23 01:49:26;;;;;;;;;;;8.30;73.10;;;;;;5018806;28;92161;-39
2023/03/23 01:51:53;;;;;;;;;;;8.30;73.00;;;;;;5000392;28;94555;-39
2023/03/23 01:54:20;;;;;;;;;;;8.30;72.90;;;;;;5017597;28;91467;-38
2023/03/23 01:56:50;;;;;;;;;;;8.30;73.10;;;;;;5015684;28;92985;-39
2023/03/23 01:59:15;;;;;;;;;;;8.20;73.10;;;;;;5013141;28;94934;-39
2023/03/23 02:01:44;;;;;;;;;;;8.30;73.00;;;;;;5013040;28;93145;-39
2023/03/23 02:04:11;;;;;;;;;;;8.20;73.00;;;;;;5014815;28;94542;-39
2023/03/23 02:06:37;;;;;;;;;;;8.20;73.00;;;;;;5008707;28;94348;-38
2023/03/23 02:09:05;;;;;;;;;;;8.20;73.00;;;;;;5000480;28;92826;-38
2023/03/23 02:11:31;;;;;;;;;;;8.20;72.90;;;;;;5002872;28;93802;-38
2023/03/23 02:13:57;;;;;;;;;;;8.20;72.90;;;;;;5000818;28;92233;-39
2023/03/23 02:16:28;;;;;;;;;;;8.20;72.90;;;;;;5014765;28;92865;-39
2023/03/23 02:18:56;;;;;;;;;;;8.20;73.00;;;;;;5016994;28;93880;-39
2023/03/23 02:21:28;;;;;;;;;;;8.20;72.90;;;;;;5016753;28;92205;-39
2023/03/23 02:23:56;;;;;;;;;;;8.20;72.90;;;;;;5000486;28;93559;-38
2023/03/23 02:26:31;;;;;;;;;;;8.20;72.80;;;;;;5012952;28;95498;-39
2023/03/23 02:29:15;;;;;;;;;;;8.20;72.90;;;;;;4999916;28;92298;-38
2023/03/23 02:31:59;;;;;;;;;;;8.10;73.50;;;;;;5013005;28;93643;-38
2023/03/23 02:34:28;;;;;;;;;;;8.10;72.90;;;;;;5017823;28;94224;-39
2023/03/23 02:37:02;;;;;;;;;;;8.10;72.90;;;;;;5018345;28;93754;-38
2023/03/23 02:39:34;;;;;;;;;;;8.10;72.90;;;;;;5003169;28;93469;-38
2023/03/23 02:42:05;;;;;;;;;;;8.10;72.90;;;;;;4999811;28;92226;-39
2023/03/23 02:44:32;;;;;;;;;;;8.10;72.90;;;;;;5006005;28;92793;-38
2023/03/23 02:46:59;;;;;;;;;;;8.10;72.80;;;;;;5013314;28;93179;-39
2023/03/23 02:49:26;;;;;;;;;;;8.00;72.80;;;;;;5017920;28;92263;-39
2023/03/23 02:51:53;;;;;;;;;;;8.00;72.80;;;;;;5014005;28;93644;-38
2023/03/23 02:54:19;;;;;;;;;;;8.00;72.80;;;;;;5016814;28;94368;-38
2023/03/23 02:56:45;;;;;;;;;;;8.00;72.70;;;;;;5013955;28;93824;-38
2023/03/23 02:59:11;;;;;;;;;;;8.00;72.80;;;;;;4999250;28;93819;-38
2023/03/23 03:01:36;;;;;;;;;;;8.00;72.80;;;;;;5010281;28;92811;-39
2023/03/23 03:04:06;;;;;;;;;;;8.00;72.60;;;;;;4999211;28;93878;-38
2023/03/23 03:06:56;;;;;;;;;;;8.00;72.70;;;;;;5013544;28;94728;-39
2023/03/23 03:09:21;;;;;;;;;;;8.00;72.70;;;;;;5012885;28;92113;-39
2023/03/23 03:11:50;;;;;;;;;;;8.00;72.70;;;;;;5016364;28;92842;-39
2023/03/23 03:14:24;;;;;;;;;;;7.90;72.70;;;;;;4998476;28;94465;-39
2023/03/23 03:17:13;;;;;;;;;;;7.90;72.70;;;;;;5014955;28;93058;-39
2023/03/23 03:19:40;;;;;;;;;;;7.90;72.70;;;;;;5006136;28;94913;-38
2023/03/23 03:22:07;;;;;;;;;;;7.90;72.70;;;;;;5012965;28;92968;-39
2023/03/23 03:24:33;;;;;;;;;;;7.90;72.70;;;;;;5016512;28;93914;-38
2023/03/23 03:26:59;;;;;;;;;;;7.90;72.60;;;;;;5012718;28;93033;-39
2023/03/23 03:29:28;;;;;;;;;;;7.90;72.60;;;;;;5013748;28;92222;-39
2023/03/23 03:31:56;;;;;;;;;;;7.90;72.50;;;;;;5016454;28;93775;-38
2023/03/23 03:34:24;;;;;;;;;;;7.90;72.70;;;;;;5008628;28;94227;-38
2023/03/23 03:36:51;;;;;;;;;;;7.80;72.80;;;;;;4999360;28;93097;-38
2023/03/23 03:39:19;;;;;;;;;;;7.80;72.70;;;;;;5001830;28;93833;-39
2023/03/23 03:41:45;;;;;;;;;;;7.80;72.60;;;;;;5002991;28;93234;-38
2023/03/23 03:44:11;;;;;;;;;;;7.80;72.60;;;;;;5007223;28;93601;-38
2023/03/23 03:46:37;;;;;;;;;;;7.80;73.20;;;;;;5013544;28;94605;-38
2023/03/23 03:49:04;;;;;;;;;;;7.80;72.70;;;;;;5014344;28;92122;-38
2023/03/23 03:51:30;;;;;;;;;;;7.70;72.60;;;;;;5002390;28;94174;-39
2023/03/23 03:53:56;;;;;;;;;;;7.80;72.70;;;;;;4999647;28;94623;-38
2023/03/23 03:56:21;;;;;;;;;;;7.70;72.60;;;;;;4999011;28;92207;-38
2023/03/23 03:58:48;;;;;;;;;;;7.70;72.70;;;;;;4999492;28;93837;-38
2023/03/23 04:01:14;;;;;;;;;;;7.70;72.70;;;;;;5001373;28;94309;-39
2023/03/23 04:03:40;;;;;;;;;;;7.70;72.50;;;;;;5005662;28;93648;-39
2023/03/23 04:06:08;;;;;;;;;;;7.70;72.70;;;;;;5013179;28;93359;-38
2023/03/23 04:08:34;;;;;;;;;;;7.70;72.50;;;;;;5005050;28;92837;-39
2023/03/23 04:11:00;;;;;;;;;;;7.70;72.60;;;;;;5012823;28;93914;-39
2023/03/23 04:13:26;;;;;;;;;;;7.70;72.50;;;;;;5006153;28;94522;-38
2023/03/23 04:15:51;;;;;;;;;;;7.70;72.50;;;;;;4999365;28;93338;-39
2023/03/23 04:18:17;;;;;;;;;;;7.60;72.50;;;;;;5005310;28;92488;-38
2023/03/23 04:20:47;;;;;;;;;;;7.60;72.70;;;;;;5014033;28;93781;-39
2023/03/23 04:23:13;;;;;;;;;;;7.60;72.50;;;;;;5009273;28;91947;-38
2023/03/23 04:25:41;;;;;;;;;;;7.60;72.50;;;;;;5009284;28;94634;-39
2023/03/23 04:28:06;;;;;;;;;;;7.60;72.50;;;;;;5016288;28;93106;-39
2023/03/23 04:30:32;;;;;;;;;;;7.60;72.50;;;;;;5016621;28;93838;-39
2023/03/23 04:33:01;;;;;;;;;;;7.50;72.40;;;;;;5001602;28;95545;-39
2023/03/23 04:35:26;;;;;;;;;;;7.60;72.60;;;;;;5008448;28;93209;-38
2023/03/23 04:37:52;;;;;;;;;;;7.60;72.60;;;;;;5001766;28;93942;-38
2023/03/23 04:40:18;;;;;;;;;;;7.50;72.60;;;;;;5001136;28;93073;-38
2023/03/23 04:42:45;;;;;;;;;;;7.50;72.60;;;;;;5001895;28;92184;-38
2023/03/23 04:45:12;;;;;;;;;;;7.60;72.60;;;;;;5020508;28;94017;-38
2023/03/23 04:47:40;;;;;;;;;;;7.50;72.60;;;;;;5018374;28;91504;-38
2023/03/23 04:50:09;;;;;;;;;;;7.50;72.60;;;;;;5001881;28;93041;-38
2023/03/23 04:52:37;;;;;;;;;;;7.50;72.70;;;;;;5008570;28;93692;-39
2023/03/23 04:55:04;;;;;;;;;;;7.50;72.60;;;;;;5014444;28;93983;-38
2023/03/23 04:57:31;;;;;;;;;;;7.50;72.60;;;;;;5017671;28;93420;-38
2023/03/23 04:59:56;;;;;;;;;;;7.50;72.50;;;;;;5017807;28;94390;-38
2023/03/23 05:02:22;;;;;;;;;;;7.40;72.60;;;;;;5016022;28;92374;-39
2023/03/23 05:04:48;;;;;;;;;;;7.50;72.60;;;;;;5006730;28;92813;-38
2023/03/23 05:07:14;;;;;;;;;;;7.50;72.60;;;;;;5016951;28;92305;-38
2023/03/23 05:09:41;;;;;;;;;;;7.40;72.60;;;;;;5015329;28;93670;-38
2023/03/23 05:12:08;;;;;;;;;;;7.50;72.60;;;;;;5005378;28;92217;-38
2023/03/23 05:14:33;;;;;;;;;;;7.40;72.60;;;;;;5018324;28;92279;-39
2023/03/23 05:16:59;;;;;;;;;;;7.40;72.60;;;;;;5017178;28;93844;-39
2023/03/23 05:19:24;;;;;;;;;;;7.40;72.60;;;;;;5015510;28;95792;-38
2023/03/23 05:21:50;;;;;;;;;;;7.40;72.50;;;;;;5015092;28;92285;-38
2023/03/23 05:24:15;;;;;;;;;;;7.40;72.50;;;;;;5017473;28;93887;-38
2023/03/23 05:26:41;;;;;;;;;;;7.40;72.40;;;;;;5018910;28;94389;-38
2023/03/23 05:29:06;;;;;;;;;;;7.40;72.50;;;;;;5012547;28;92426;-38
2023/03/23 05:31:32;;;;;;;;;;;7.40;72.50;;;;;;5017506;28;94498;-38
2023/03/23 05:33:58;;;;;;;;;;;7.40;72.60;;;;;;5001145;28;92397;-38
2023/03/23 05:36:24;;;;;;;;;;;7.40;72.50;;;;;;5014760;28;94285;-38
2023/03/23 05:38:52;;;;;;;;;;;7.40;72.40;;;;;;5018389;28;94195;-38
2023/03/23 05:41:18;;;;;;;;;;;7.40;72.40;;;;;;5015992;28;92211;-38
2023/03/23 05:43:43;;;;;;;;;;;7.40;72.50;;;;;;5016407;28;93741;-38
2023/03/23 05:46:09;;;;;;;;;;;7.40;72.40;;;;;;5001520;28;94601;-39
2023/03/23 05:48:36;;;;;;;;;;;7.30;72.40;;;;;;5003909;28;92251;-38
2023/03/23 05:51:02;;;;;;;;;;;7.30;72.50;;;;;;5002551;28;94417;-39
2023/03/23 05:53:29;;;;;;;;;;;7.30;72.50;;;;;;5014717;28;93414;-38
2023/03/23 05:55:58;;;;;;;;;;;7.30;72.50;;;;;;5014420;28;93900;-39
2023/03/23 05:58:23;;;;;;;;;;;7.30;72.50;;;;;;5003294;28;95039;-38
2023/03/23 06:00:49;;;;;;;;;;;7.30;72.40;;;;;;5016929;28;92180;-39
2023/03/23 06:03:15;;;;;;;;;;;7.30;72.40;;;;;;5017955;28;92216;-38
2023/03/23 06:05:44;;;;;;;;;;;7.30;72.50;;;;;;5015075;28;94181;-38
2023/03/23 06:08:11;;;;;;;;;;;7.30;72.50;;;;;;5002929;28;93085;-38
2023/03/23 06:10:37;;;;;;;;;;;7.30;72.50;;;;;;5018018;28;94705;-38
2023/03/23 06:13:03;;;;;;;;;;;7.30;72.50;;;;;;5012926;28;92973;-39
2023/03/23 06:15:31;;;;;;;;;;;7.30;72.50;;;;;;5007981;28;93694;-39
2023/03/23 06:18:00;;;;;;;;;;;7.30;72.50;;;;;;5014612;28;94630;-39
2023/03/23 06:20:25;;;;;;;;;;;7.30;72.50;;;;;;5011128;28;92369;-38
2023/03/23 06:22:51;;;;;;;;;;;7.30;72.50;;;;;;5016794;28;92979;-39
2023/03/23 06:25:17;;;;;;;;;;;7.30;72.40;;;;;;5016012;28;93565;-39
2023/03/23 06:27:43;;;;;;;;;;;7.20;72.50;;;;;;5016247;28;92403;-38
2023/03/23 06:30:09;;;;;;;;;;;7.30;72.50;;;;;;5006144;28;94376;-38
2023/03/23 06:32:35;;;;;;;;;;;7.30;72.50;;;;;;5018509;28;93606;-39
2023/03/23 06:35:01;;;;;;;;;;;7.30;72.40;;;;;;5017260;28;94532;-38
2023/03/23 06:37:27;;;;;;;;;;;7.30;72.50;;;;;;5015221;28;94451;-38
2023/03/23 06:39:52;;;;;;;;;;;7.20;72.50;;;;;;5003684;28;92983;-38
2023/03/23 06:42:18;;;;;;;;;;;7.30;72.50;;;;;;5000063;28;94567;-38
2023/03/23 06:44:43;;;;;;;;;;;7.20;72.40;;;;;;4999360;28;94500;-38
2023/03/23 06:47:09;;;;;;;;;;;7.20;72.40;;;;;;4999427;28;93115;-38
2023/03/23 06:49:34;;;;;;;;;;;7.20;72.50;;;;;;5013667;28;94494;-38
2023/03/23 06:52:01;;;;;;;;;;;7.20;72.50;;;;;;4999285;28;94396;-38
2023/03/23 06:54:27;;;;;;;;;;;7.20;72.50;;;;;;5002558;28;92840;-39
2023/03/23 06:56:52;;;;;;;;;;;7.20;72.50;;;;;;4998655;28;95661;-38
2023/03/23 06:59:19;;;;;;;;;;;7.20;72.50;;;;;;5005198;28;92101;-38
2023/03/23 07:01:46;;;;;;;;;;;7.20;72.60;;;;;;5016932;28;94326;-38
2023/03/23 07:04:12;;;;;;;;;;;7.10;72.70;;;;;;5004720;28;94426;-38
2023/03/23 07:06:37;;;;;;;;;;;7.10;72.70;;;;;;5016197;28;92201;-38
2023/03/23 07:09:03;;;;;;;;;;;7.20;72.70;;;;;;5016816;28;92414;-38
2023/03/23 07:11:29;;;;;;;;;;;7.10;72.60;;;;;;5015457;28;94495;-38
2023/03/23 07:13:54;;;;;;;;;;;7.20;73.10;;;;;;5003050;28;92469;-38
2023/03/23 07:16:20;;;;;;;;;;;7.20;72.70;;;;;;4998641;28;94793;-38
2023/03/23 07:18:45;;;;;;;;;;;7.20;72.50;;;;;;4999253;28;92807;-38
2023/03/23 07:21:11;;;;;;;;;;;7.20;73.10;;;;;;4998649;28;93813;-38
2023/03/23 07:23:36;;;;;;;;;;;7.10;72.60;;;;;;5012180;28;94751;-38
2023/03/23 07:26:03;;;;;;;;;;;7.10;72.60;;;;;;5016868;28;92324;-38
2023/03/23 07:28:28;;;;;;;;;;;7.20;72.60;;;;;;5014505;28;94069;-38
2023/03/23 07:30:54;;;;;;;;;;;7.20;72.50;;;;;;5013437;28;95165;-38
2023/03/23 07:33:20;;;;;;;;;;;7.20;72.50;;;;;;4999394;28;92275;-38
2023/03/23 07:35:45;;;;;;;;;;;7.20;72.70;;;;;;5007651;28;93947;-38
2023/03/23 07:38:11;;;;;;;;;;;7.10;72.70;;;;;;5016156;28;91505;-38
2023/03/23 07:40:37;;;;;;;;;;;7.20;72.60;;;;;;5012825;28;93098;-38
2023/03/23 07:43:03;;;;;;;;;;;7.10;72.60;;;;;;5012956;28;94336;-38
2023/03/23 07:45:29;;;;;;;;;;;7.20;72.50;;;;;;5013227;28;93181;-39
2023/03/23 07:47:55;;;;;;;;;;;7.20;72.60;;;;;;5014736;28;93276;-38
2023/03/23 07:50:24;;;;;;;;;;;7.20;72.70;;;;;;5012416;28;94793;-38
2023/03/23 07:52:50;;;;;;;;;;;7.20;72.70;;;;;;5014771;28;92119;-38
2023/03/23 07:55:19;;;;;;;;;;;7.20;72.50;;;;;;5012858;28;93701;-38
2023/03/23 07:57:46;;;;;;;;;;;7.10;72.60;;;;;;5019853;28;94582;-38
2023/03/23 08:00:14;;;;;;;;;;;7.10;72.60;;;;;;5019015;28;94325;-38
2023/03/23 08:02:40;;;;;;;;;;;7.10;72.50;;;;;;5019775;28;93473;-38
2023/03/23 08:05:05;;;;;;;;;;;7.20;72.70;;;;;;5017426;28;92256;-39
2023/03/23 08:07:31;;;;;;;;;;;7.10;72.60;;;;;;5006182;28;93425;-38
2023/03/23 08:09:56;;;;;;;;;;;7.20;72.60;;;;;;5001349;28;95184;-38
2023/03/23 08:12:22;;;;;;;;;;;7.20;72.50;;;;;;5016917;28;92311;-39
2023/03/23 08:14:48;;;;;;;;;;;7.20;72.60;;;;;;5019856;28;94289;-39
2023/03/23 08:17:14;;;;;;;;;;;7.20;72.50;;;;;;5017903;28;94667;-38
2023/03/23 08:19:39;;;;;;;;;;;7.20;72.60;;;;;;5020099;28;92275;-38
2023/03/23 08:22:05;;;;;;;;;;;7.20;72.60;;;;;;5017494;28;94324;-39
2023/03/23 08:24:31;;;;;;;;;;;7.20;72.70;;;;;;5017450;28;92229;-39
2023/03/23 08:26:56;;;;;;;;;;;7.20;72.70;;;;;;5015623;28;94595;-39
2023/03/23 08:29:22;;;;;;;;;;;7.20;72.70;;;;;;5019963;28;94445;-38
2023/03/23 08:31:47;;;;;;;;;;;7.20;72.80;;;;;;5016932;28;92895;-39
2023/03/23 08:34:15;;;;;;;;;;;7.20;72.80;;;;;;5016150;28;93048;-38
2023/03/23 08:36:43;;;;;;;;;;;7.10;72.70;;;;;;5018094;28;94755;-38
2023/03/23 08:39:09;;;;;;;;;;;7.10;72.80;;;;;;5017422;28;92166;-38
2023/03/23 08:41:35;;;;;;;;;;;7.10;73.00;;;;;;5018967;28;94015;-38
2023/03/23 08:44:01;;;;;;;;;;;7.10;73.10;;;;;;5019154;28;92188;-38
2023/03/23 08:46:27;;;;;;;;;;;7.10;73.40;;;;;;5009046;28;94465;-38
2023/03/23 08:48:53;;;;;;;;;;;7.10;73.30;;;;;;5019091;28;94480;-38
2023/03/23 08:51:19;;;;;;;;;;;7.10;73.20;;;;;;5017618;28;91419;-38
2023/03/23 08:53:45;;;;;;;;;;;7.10;73.20;;;;;;5008421;28;93049;-38
2023/03/23 08:56:12;;;;;;;;;;;7.10;73.20;;;;;;5001405;28;93456;-38
2023/03/23 08:58:38;;;;;;;;;;;7.10;73.20;;;;;;5000889;28;93788;-38
2023/03/23 09:01:07;;;;;;;;;;;7.10;73.10;;;;;;5003949;28;95129;-39
2023/03/23 09:03:34;;;;;;;;;;;7.10;73.20;;;;;;5001468;28;92275;-38
2023/03/23 09:06:01;;;;;;;;;;;7.10;73.50;;;;;;5001274;28;93586;-39
2023/03/23 09:08:28;;;;;;;;;;;7.10;73.30;;;;;;5000777;28;94739;-38
2023/03/23 09:11:03;;;;;;;;;;;7.10;73.30;;;;;;5008266;28;92236;-39
2023/03/23 09:13:29;;;;;;;;;;;7.10;73.40;;;;;;5016806;28;94380;-38
2023/03/23 09:15:55;;;;;;;;;;;7.20;73.90;;;;;;5015377;28;93764;-39
2023/03/23 09:18:21;;;;;;;;;;;7.20;74.10;;;;;;5009295;28;92465;-38
2023/03/23 09:20:49;;;;;;;;;;;7.20;73.30;;;;;;5001465;28;93712;-38
2023/03/23 09:23:15;;;;;;;;;;;7.10;73.70;;;;;;5016933;28;95380;-38
2023/03/23 09:25:40;;;;;;;;;;;7.10;73.80;;;;;;5001768;28;94000;-38
2023/03/23 09:28:06;;;;;;;;;;;7.20;73.90;;;;;;5000533;28;94419;-38
2023/03/23 09:30:33;;;;;;;;;;;7.10;74.00;;;;;;5001158;28;92849;-38
2023/03/23 09:33:02;;;;;;;;;;;7.20;74.10;;;;;;5003001;28;92877;-39
2023/03/23 09:35:28;;;;;;;;;;;7.20;74.30;;;;;;5011171;28;93684;-39
2023/03/23 09:37:54;;;;;;;;;;;7.20;74.10;;;;;;5010837;28;92752;-38
2023/03/23 09:40:23;;;;;;;;;;;7.20;74.10;;;;;;5015504;28;93429;-38
2023/03/23 09:43:04;;;;;;;;;;;7.20;74.20;;;;;;5010466;28;94145;-39
2023/03/23 09:45:39;;;;;;;;;;;7.20;74.30;;;;;;5003985;28;92128;-38
2023/03/23 09:48:14;;;;;;;;;;;7.30;74.10;;;;;;5001657;28;94827;-38
2023/03/23 09:50:43;;;;;;;;;;;7.30;74.60;;;;;;5012306;28;92172;-38
2023/03/23 09:53:34;;;;;;;;;;;7.30;74.40;;;;;;5005427;28;92402;-38
2023/03/23 09:56:08;;;;;;;;;;;7.30;74.30;;;;;;5005243;28;93215;-39
2023/03/23 09:58:36;;;;;;;;;;;7.40;74.20;;;;;;5014504;28;92178;-38
2023/03/23 10:01:06;;;;;;;;;;;7.40;74.10;;;;;;5016233;28;93925;-38
2023/03/23 10:03:34;;;;;;;;;;;7.40;74.30;;;;;;5000010;28;94475;-38
2023/03/23 10:06:00;;;;;;;;;;;7.40;74.40;;;;;;5000938;28;91502;-38
2023/03/23 10:08:27;;;;;;;;;;;7.40;74.30;;;;;;5014977;28;93351;-39
2023/03/23 10:11:11;;;;;;;;;;;7.50;74.40;;;;;;5009756;28;92192;-39
2023/03/23 10:13:37;;;;;;;;;;;7.50;74.40;;;;;;5000671;28;93397;-38
2023/03/23 10:16:03;;;;;;;;;;;7.50;74.50;;;;;;5012335;28;94230;-39
2023/03/23 10:18:36;;;;;;;;;;;7.50;74.00;;;;;;5012844;28;93116;-39
2023/03/23 10:21:02;;;;;;;;;;;7.50;74.30;;;;;;5000615;28;93897;-38
2023/03/23 10:23:44;;;;;;;;;;;7.50;74.40;;;;;;4998423;28;94498;-39
2023/03/23 10:26:25;;;;;;;;;;;7.50;74.50;;;;;;5008190;28;92945;-38
2023/03/23 10:28:56;;;;;;;;;;;7.50;74.40;;;;;;5012015;28;93831;-38
2023/03/23 10:31:27;;;;;;;;;;;7.50;75.70;;;;;;5003214;28;93849;-39
2023/03/23 10:33:57;;;;;;;;;;;7.50;74.80;;;;;;5007866;28;93154;-38
2023/03/23 10:36:24;;;;;;;;;;;7.50;74.80;;;;;;5011401;28;94662;-39
2023/03/23 10:39:11;;;;;;;;;;;7.50;75.10;;;;;;4999722;28;93140;-39
2023/03/23 10:41:37;;;;;;;;;;;7.60;75.10;;;;;;5000413;28;95126;-38
2023/03/23 10:44:09;;;;;;;;;;;7.60;75.10;;;;;;4999530;28;94596;-39
2023/03/23 10:46:53;;;;;;;;;;;7.60;75.40;;;;;;5014591;28;93001;-38
2023/03/23 10:49:45;;;;;;;;;;;7.60;75.10;;;;;;5000697;28;93968;-38
2023/03/23 10:52:31;;;;;;;;;;;7.60;75.00;;;;;;4997639;28;93868;-38
2023/03/23 10:55:03;;;;;;;;;;;7.70;74.70;;;;;;5005493;28;93029;-39
2023/03/23 10:57:31;;;;;;;;;;;7.70;75.10;;;;;;5002962;28;93598;-39
2023/03/23 11:00:05;;;;;;;;;;;7.70;75.10;;;;;;5011855;28;92257;-39
2023/03/23 11:02:31;;;;;;;;;;;7.70;75.20;;;;;;5005980;28;94295;-39
2023/03/23 11:04:59;;;;;;;;;;;7.70;75.20;;;;;;5008108;28;95861;-38
2023/03/23 11:07:28;;;;;;;;;;;7.70;75.40;;;;;;5002218;28;92200;-38
2023/03/23 11:09:55;;;;;;;;;;;7.70;75.30;;;;;;5001579;28;93794;-39
2023/03/23 11:12:22;;;;;;;;;;;7.70;74.90;;;;;;4999897;28;94997;-38
2023/03/23 11:14:48;;;;;;;;;;;7.70;75.00;;;;;;5011058;28;92300;-38
2023/03/23 11:17:23;;;;;;;;;;;7.70;75.20;;;;;;5007547;28;94576;-39
2023/03/23 11:19:48;;;;;;;;;;;7.70;75.30;;;;;;5007720;28;93078;-38
2023/03/23 11:22:19;;;;;;;;;;;7.80;75.40;;;;;;5001392;28;94296;-39
2023/03/23 11:24:46;;;;;;;;;;;7.80;75.20;;;;;;4999252;28;94475;-38
2023/03/23 11:27:13;;;;;;;;;;;7.80;75.70;;;;;;4999851;28;93068;-38
2023/03/23 11:29:45;;;;;;;;;;;7.80;75.30;;;;;;5006106;28;93116;-38
2023/03/23 11:32:12;;;;;;;;;;;7.80;75.40;;;;;;5014781;28;94308;-39
2023/03/23 11:34:42;;;;;;;;;;;7.90;75.50;;;;;;5007492;28;92735;-38
2023/03/23 11:37:15;;;;;;;;;;;7.90;75.60;;;;;;5002268;28;92408;-39
2023/03/23 11:39:47;;;;;;;;;;;7.90;75.60;;;;;;5003078;28;92310;-38
2023/03/23 11:42:18;;;;;;;;;;;7.90;75.50;;;;;;5003215;28;93866;-39
2023/03/23 11:44:46;;;;;;;;;;;7.90;75.60;;;;;;5003946;28;95376;-38
2023/03/23 11:47:21;;;;;;;;;;;8.00;75.40;;;;;;4999701;28;91434;-39
2023/03/23 11:50:05;;;;;;;;;;;8.00;75.20;;;;;;4999369;28;93665;-38
2023/03/23 11:52:33;;;;;;;;;;;8.00;75.30;;;;;;4998940;28;94199;-39
2023/03/23 11:55:08;;;;;;;;;;;8.00;75.40;;;;;;4998755;28;93201;-39
2023/03/23 11:57:34;;;;;;;;;;;8.00;75.30;;;;;;5003102;28;93626;-38
2023/03/23 12:00:02;;;;;;;;;;;8.10;75.30;;;;;;5003429;28;94585;-38
2023/03/23 12:02:47;;;;;;;;;;;8.00;75.30;;;;;;5001251;28;94184;-38
2023/03/23 12:05:15;;;;;;;;;;;8.00;75.40;;;;;;5006076;28;94483;-38
2023/03/23 12:07:41;;;;;;;;;;;8.10;75.30;;;;;;5013776;28;92186;-39
2023/03/23 12:10:13;;;;;;;;;;;8.10;75.20;;;;;;4999223;28;94169;-39
2023/03/23 12:12:39;;;;;;;;;;;8.10;75.50;;;;;;5001176;28;94254;-38
2023/03/23 12:15:11;;;;;;;;;;;8.10;75.30;;;;;;4999968;28;92965;-39
2023/03/23 12:17:36;;;;;;;;;;;8.10;75.20;;;;;;5009116;28;93730;-38
2023/03/23 12:20:14;;;;;;;;;;;8.20;75.20;;;;;;5004255;28;95721;-39
2023/03/23 12:22:40;;;;;;;;;;;8.20;75.50;;;;;;5007462;28;92248;-39
2023/03/23 12:25:17;;;;;;;;;;;8.20;74.80;;;;;;5003617;28;93552;-39
2023/03/23 12:28:06;;;;;;;;;;;8.30;75.20;;;;;;5002236;28;92448;-38
2023/03/23 12:30:43;;;;;;;;;;;8.20;75.40;;;;;;4998619;28;93631;-39
2023/03/23 12:33:28;;;;;;;;;;;8.30;75.00;;;;;;5007675;28;94249;-38
2023/03/23 12:36:04;;;;;;;;;;;8.30;74.80;;;;;;5010944;28;92218;-39
2023/03/23 12:38:29;;;;;;;;;;;8.30;75.00;;;;;;5005763;28;93793;-38
2023/03/23 12:41:13;;;;;;;;;;;8.40;75.10;;;;;;4997865;28;94782;-39
2023/03/23 12:43:53;;;;;;;;;;;8.40;74.90;;;;;;5010335;28;92210;-38
2023/03/23 12:46:27;;;;;;;;;;;8.40;75.00;;;;;;5002586;28;93835;-39
2023/03/23 12:48:59;;;;;;;;;;;8.40;74.90;;;;;;5001981;28;92444;-38
2023/03/23 12:51:36;;;;;;;;;;;8.50;75.20;;;;;;5001734;28;93719;-39
2023/03/23 12:54:02;;;;;;;;;;;8.50;74.70;;;;;;5001337;28;94378;-39
2023/03/23 12:56:35;;;;;;;;;;;8.50;75.10;;;;;;5002218;28;92189;-39
2023/03/23 12:59:05;;;;;;;;;;;8.50;74.90;;;;;;5008121;28;93783;-38
2023/03/23 13:01:37;;;;;;;;;;;8.50;74.90;;;;;;5001367;28;93115;-39
2023/03/23 13:04:08;;;;;;;;;;;8.60;74.70;;;;;;5001689;28;91621;-39
2023/03/23 13:06:38;;;;;;;;;;;8.60;74.90;;;;;;5007430;28;92921;-39
2023/03/23 13:09:06;;;;;;;;;;;8.60;74.60;;;;;;5015700;28;93854;-39
2023/03/23 13:11:33;;;;;;;;;;;8.60;74.70;;;;;;5005449;28;93609;-39
2023/03/23 13:14:20;;;;;;;;;;;8.70;74.80;;;;;;5007073;28;94593;-39
2023/03/23 13:16:48;;;;;;;;;;;8.60;74.70;;;;;;4990310;28;92159;-38
2023/03/23 13:19:17;;;;;;;;;;;8.70;74.50;;;;;;5011847;28;93619;-39
2023/03/23 13:21:45;;;;;;;;;;;8.80;74.70;;;;;;5001554;28;94434;-38
2023/03/23 13:24:14;;;;;;;;;;;8.80;74.40;;;;;;5006127;28;93691;-39
2023/03/23 13:26:42;;;;;;;;;;;8.80;74.40;;;;;;5006532;28;93890;-38
2023/03/23 13:29:14;;;;;;;;;;;8.80;74.30;;;;;;5004192;28;93758;-39
2023/03/23 13:31:40;;;;;;;;;;;8.90;74.00;;;;;;5001399;28;92946;-38
2023/03/23 13:34:15;;;;;;;;;;;8.90;74.30;;;;;;5013750;28;93386;-39
2023/03/23 13:36:51;;;;;;;;;;;8.90;74.10;;;;;;5002624;28;93877;-39
2023/03/23 13:39:21;;;;;;;;;;;8.90;74.30;;;;;;5009180;28;94776;-39
2023/03/23 13:42:05;;;;;;;;;;;9.00;74.30;;;;;;5010442;28;94772;-39
2023/03/23 13:44:53;;;;;;;;;;;9.00;74.00;;;;;;5000905;28;92168;-38
2023/03/23 13:47:28;;;;;;;;;;;9.00;74.00;;;;;;4995234;28;93981;-39
2023/03/23 13:49:57;;;;;;;;;;;9.00;74.10;;;;;;5001022;28;94767;-38
2023/03/23 13:52:41;;;;;;;;;;;9.00;74.50;;;;;;5014053;28;93064;-39
2023/03/23 13:55:16;;;;;;;;;;;9.00;74.40;;;;;;5012705;28;92147;-39
2023/03/23 13:57:56;;;;;;;;;;;9.00;74.40;;;;;;5008713;28;92132;-39
2023/03/23 14:00:27;;;;;;;;;;;9.00;74.60;;;;;;5000739;28;94890;-39
2023/03/23 14:02:59;;;;;;;;;;;9.00;74.50;;;;;;5006804;28;95303;-38
2023/03/23 14:05:54;;;;;;;;;;;9.10;74.50;;;;;;5001018;28;92186;-38
2023/03/23 14:08:28;;;;;;;;;;;9.10;74.40;;;;;;4995507;28;94431;-38
2023/03/23 14:10:57;;;;;;;;;;;9.10;74.60;;;;;;5013217;28;94232;-39
2023/03/23 14:13:29;;;;;;;;;;;9.10;74.60;;;;;;5000405;28;92132;-38
2023/03/23 14:15:57;;;;;;;;;;;9.10;74.80;;;;;;5003117;28;93877;-39
2023/03/23 14:18:25;;;;;;;;;;;9.10;74.70;;;;;;5001265;28;92235;-39
2023/03/23 14:20:50;;;;;;;;;;;9.20;74.50;;;;;;5009816;28;93820;-39
2023/03/23 14:23:17;;;;;;;;;;;9.20;74.40;;;;;;4999948;28;95101;-39
2023/03/23 14:25:42;;;;;;;;;;;9.20;74.20;;;;;;4999855;28;92229;-39
2023/03/23 14:28:18;;;;;;;;;;;9.20;74.50;;;;;;4999204;28;93693;-39
2023/03/23 14:30:44;;;;;;;;;;;9.30;74.70;;;;;;4999723;28;94419;-39
2023/03/23 14:33:10;;;;;;;;;;;9.30;74.50;;;;;;5003991;28;92293;-39
2023/03/23 14:35:38;;;;;;;;;;;9.30;74.60;;;;;;5012380;28;93586;-39
2023/03/23 14:38:04;;;;;;;;;;;9.30;74.30;;;;;;5002192;28;94618;-39
2023/03/23 14:40:30;;;;;;;;;;;9.30;74.40;;;;;;5001341;28;93936;-38